createdAt,value
2019-06-07T00:01:09.567Z,80.58
2019-06-07T00:04:08.546Z,80.71
2019-06-07T00:07:03.094Z,80.94
2019-06-07T00:09:59.703Z,80.96
2019-06-07T00:12:56.530Z,81.63
2019-06-07T00:15:53.273Z,81.32
2019-06-07T00:18:49.287Z,81.78
2019-06-07T00:24:41.440Z,82.26
2019-06-07T00:27:39.074Z,83.23
2019-06-07T00:30:48.184Z,82.69
2019-06-07T00:33:32.073Z,84.13
2019-06-07T00:36:27.631Z,84.47
2019-06-07T00:39:25.858Z,83.79
2019-06-07T00:42:23.314Z,83.94
2019-06-07T00:45:18.967Z,84.50
2019-06-07T00:48:19.558Z,84.98
2019-06-07T00:51:08.847Z,85.27
2019-06-07T00:54:05.452Z,85.19
2019-06-07T00:57:00.680Z,85.83
2019-06-07T00:59:57.604Z,86.03
2019-06-07T01:02:53.266Z,86.15
2019-06-07T01:05:49.597Z,86.61
2019-06-07T01:08:46.146Z,86.93
2019-06-07T01:11:43.700Z,87.09
2019-06-07T01:14:40.348Z,87.50
2019-06-07T01:18:32.557Z,87.50
2019-06-07T01:20:39.330Z,87.47
2019-06-07T01:24:06.828Z,87.68
2019-06-07T01:26:31.261Z,87.50
2019-06-07T01:29:30.912Z,88.48
2019-06-07T01:32:27.285Z,88.43
2019-06-07T01:35:22.073Z,88.79
2019-06-07T01:38:21.915Z,89.40
2019-06-07T01:41:17.231Z,89.28
2019-06-07T01:44:10.866Z,89.43
2019-06-07T01:47:08.786Z,88.65
2019-06-07T01:50:03.938Z,89.61
2019-06-07T01:53:00.474Z,89.89
2019-06-07T01:55:56.858Z,90.24
2019-06-07T01:58:54.417Z,90.42
2019-06-07T02:01:49.915Z,90.75
2019-06-07T02:04:46.435Z,90.48
2019-06-07T02:07:41.936Z,90.93
2019-06-07T02:10:39.734Z,91.12
2019-06-07T02:13:37.220Z,90.69
2019-06-07T02:16:32.735Z,90.08
2019-06-07T02:19:32.280Z,90.80
2019-06-07T02:22:25.702Z,91.08
2019-06-07T02:25:38.914Z,91.18
2019-06-07T02:28:44.191Z,91.01
2019-06-07T02:31:13.756Z,91.63
2019-06-07T02:34:10.269Z,91.39
2019-06-07T02:37:05.792Z,91.30
2019-06-07T02:40:01.932Z,91.98
2019-06-07T02:42:58.586Z,91.13
2019-06-07T02:45:55.229Z,92.20
2019-06-07T02:48:51.865Z,93.00
2019-06-07T02:51:48.712Z,92.36
2019-06-07T02:54:45.472Z,92.89
2019-06-07T02:57:42.659Z,92.92
2019-06-07T03:01:07.581Z,92.67
2019-06-07T03:03:53.949Z,92.85
2019-06-07T03:06:50.728Z,92.88
2019-06-07T03:09:47.314Z,93.56
2019-06-07T03:12:43.802Z,95.38
2019-06-07T03:15:49.614Z,95.54
2019-06-07T03:18:47.806Z,95.80
2019-06-07T03:21:44.623Z,95.48
2019-06-07T03:24:42.358Z,94.93
2019-06-07T03:27:48.611Z,95.00
2019-06-07T03:30:47.007Z,95.39
2019-06-07T03:33:36.219Z,95.85
2019-06-07T03:36:29.638Z,96.84
2019-06-07T03:39:25.296Z,97.48
2019-06-07T03:42:21.529Z,96.63
2019-06-07T03:45:16.896Z,97.08
2019-06-07T03:48:13.473Z,98.73
2019-06-07T03:51:24.190Z,98.98
2019-06-07T03:54:06.881Z,98.58
2019-06-07T03:57:02.420Z,99.64
2019-06-07T04:00:00.029Z,100.00
2019-06-07T04:02:56.547Z,100.00
2019-06-07T04:05:55.049Z,100.00
2019-06-07T04:08:51.620Z,100.00
2019-06-07T04:11:47.814Z,100.00
2019-06-07T04:14:45.014Z,100.00
2019-06-07T04:18:00.499Z,100.00
2019-06-07T04:20:41.487Z,100.00
2019-06-07T04:23:38.555Z,100.00
2019-06-07T04:26:34.508Z,100.00
2019-06-07T04:29:34.077Z,100.00
2019-06-07T04:32:24.710Z,100.00
2019-06-07T04:35:22.727Z,100.00
2019-06-07T04:38:17.682Z,100.00
2019-06-07T04:41:15.373Z,100.00
2019-06-07T04:44:10.970Z,100.00
2019-06-07T04:47:07.605Z,100.00
2019-06-07T04:50:04.140Z,100.00
2019-06-07T04:53:01.041Z,100.00
2019-06-07T04:55:57.881Z,100.00
2019-06-07T04:58:54.687Z,100.00
2019-06-07T05:01:51.326Z,100.00
2019-06-07T05:04:47.007Z,100.00
2019-06-07T05:07:46.295Z,100.00
2019-06-07T05:10:43.900Z,100.00
2019-06-07T05:13:39.881Z,100.00
2019-06-07T05:16:37.930Z,100.00
2019-06-07T05:19:30.603Z,100.00
2019-06-07T05:22:27.647Z,100.00
2019-06-07T05:25:27.181Z,100.00
2019-06-07T05:28:24.052Z,100.00
2019-06-07T05:31:20.183Z,100.00
2019-06-07T05:34:16.701Z,100.00
2019-06-07T05:37:13.698Z,100.00
2019-06-07T05:40:09.948Z,100.00
2019-06-07T05:43:05.576Z,100.00
2019-06-07T05:46:02.062Z,99.65
2019-06-07T05:48:58.845Z,100.00
2019-06-07T05:51:55.555Z,99.30
2019-06-07T05:54:52.616Z,98.74
2019-06-07T05:57:51.006Z,97.34
2019-06-07T06:00:47.538Z,97.08
2019-06-07T06:03:44.062Z,95.61
2019-06-07T06:06:39.503Z,95.18
2019-06-07T06:09:35.373Z,94.23
2019-06-07T06:12:38.254Z,94.26
2019-06-07T06:15:42.462Z,93.36
2019-06-07T06:18:24.349Z,92.28
2019-06-07T06:21:20.369Z,92.22
2019-06-07T06:24:16.147Z,93.22
2019-06-07T06:27:41.506Z,92.94
2019-06-07T06:30:08.580Z,91.20
2019-06-07T06:33:06.014Z,91.56
2019-06-07T06:36:01.540Z,91.24
2019-06-07T06:38:59.588Z,89.07
2019-06-07T06:42:03.531Z,90.18
2019-06-07T06:44:54.676Z,90.96
2019-06-07T06:47:50.639Z,88.00
2019-06-07T06:50:49.163Z,87.58
2019-06-07T06:53:43.884Z,87.54
2019-06-07T06:56:39.753Z,87.00
2019-06-07T06:59:39.116Z,85.52
2019-06-07T07:02:31.343Z,86.18
2019-06-07T07:05:28.260Z,86.60
2019-06-07T07:08:23.702Z,85.40
2019-06-07T07:11:23.230Z,85.41
2019-06-07T07:14:17.389Z,85.15
2019-06-07T07:17:12.951Z,85.15
2019-06-07T07:20:08.710Z,85.94
2019-06-07T07:23:06.304Z,82.64
2019-06-07T07:26:01.952Z,82.79
2019-06-07T07:28:59.578Z,81.94
2019-06-07T07:31:56.471Z,82.98
2019-06-07T07:34:59.644Z,81.31
2019-06-07T07:37:53.502Z,80.08
2019-06-07T07:41:02.287Z,82.00
2019-06-07T07:43:45.712Z,81.24
2019-06-07T07:46:39.295Z,80.65
2019-06-07T07:49:35.856Z,79.81
2019-06-07T07:52:32.045Z,79.41
2019-06-07T07:55:28.257Z,79.69
2019-06-07T07:58:23.673Z,78.00
2019-06-07T08:01:20.058Z,78.72
2019-06-07T08:04:39.805Z,77.60
2019-06-07T08:07:20.823Z,78.48
2019-06-07T08:10:16.511Z,77.33
2019-06-07T08:13:24.795Z,78.33
2019-06-07T08:16:16.629Z,77.68
2019-06-07T08:19:08.136Z,75.59
2019-06-07T08:22:04.974Z,76.88
2019-06-07T08:25:04.237Z,75.46
2019-06-07T08:27:59.116Z,74.94
2019-06-07T08:31:03.269Z,74.06
2019-06-07T08:33:52.682Z,74.20
2019-06-07T08:36:48.072Z,74.05
2019-06-07T08:39:43.986Z,75.31
2019-06-07T08:42:59.819Z,74.25
2019-06-07T08:45:39.979Z,73.31
2019-06-07T08:48:36.608Z,73.08
2019-06-07T08:51:32.470Z,71.99
2019-06-07T08:54:30.568Z,72.38
2019-06-07T08:57:26.436Z,72.04
2019-06-07T09:00:45.545Z,70.47
2019-06-07T09:03:18.391Z,71.77
2019-06-07T09:07:01.066Z,71.50
2019-06-07T09:09:11.532Z,70.49
2019-06-07T09:12:11.249Z,71.13
2019-06-07T09:15:20.422Z,70.65
2019-06-07T09:21:09.588Z,69.32
2019-06-07T09:24:11.179Z,69.33
2019-06-07T09:27:04.107Z,70.10
2019-06-07T09:30:03.170Z,70.07
2019-06-07T09:32:53.202Z,69.63
2019-06-07T09:35:50.274Z,68.28
2019-06-07T09:38:45.544Z,68.20
2019-06-07T09:41:47.349Z,67.68
2019-06-07T09:44:40.030Z,68.71
2019-06-07T09:47:40.900Z,67.89
2019-06-07T09:50:36.482Z,68.54
2019-06-07T09:53:33.030Z,67.25
2019-06-07T09:56:28.508Z,65.81
2019-06-07T09:59:25.164Z,67.22
2019-06-07T10:02:21.458Z,66.95
2019-06-07T10:05:18.007Z,65.39
2019-06-07T10:09:01.085Z,66.44
2019-06-07T10:11:11.165Z,66.21
2019-06-07T10:14:08.690Z,65.08
2019-06-07T10:17:10.249Z,65.45
2019-06-07T10:20:07.609Z,68.11
2019-06-07T10:23:05.742Z,67.78
2019-06-07T10:26:01.587Z,65.51
2019-06-07T10:28:57.627Z,63.60
2019-06-07T10:31:53.818Z,66.98
2019-06-07T10:34:50.109Z,65.03
2019-06-07T10:37:45.711Z,61.46
2019-06-07T10:40:41.842Z,64.83
2019-06-07T10:43:37.408Z,64.70
2019-06-07T10:46:35.046Z,64.25
2019-06-07T10:49:30.110Z,63.86
2019-06-07T10:52:26.929Z,63.99
2019-06-07T10:55:24.481Z,63.43
2019-06-07T10:58:20.057Z,63.72
2019-06-07T11:01:18.810Z,62.91
2019-06-07T11:04:20.850Z,62.75
2019-06-07T11:07:17.407Z,61.11
2019-06-07T11:10:19.359Z,61.36
2019-06-07T11:13:10.895Z,61.53
2019-06-07T11:16:07.085Z,60.91
2019-06-07T11:19:00.825Z,61.16
2019-06-07T11:21:56.651Z,60.90
2019-06-07T11:24:52.859Z,60.66
2019-06-07T11:27:47.957Z,59.48
2019-06-07T11:30:44.340Z,59.10
2019-06-07T11:33:41.080Z,60.19
2019-06-07T11:36:37.771Z,57.07
2019-06-07T11:39:34.246Z,58.33
2019-06-07T11:42:29.188Z,58.66
2019-06-07T11:45:25.675Z,59.47
2019-06-07T11:48:22.234Z,58.64
2019-06-07T11:51:18.966Z,60.43
2019-06-07T11:54:16.055Z,56.92
2019-06-07T11:57:13.034Z,57.67
2019-06-07T12:00:09.362Z,58.17
2019-06-07T12:03:07.791Z,54.62
2019-06-07T12:06:05.303Z,56.41
2019-06-07T12:09:00.930Z,55.90
2019-06-07T12:11:57.518Z,55.32
2019-06-07T12:15:00.401Z,54.15
2019-06-07T12:17:58.268Z,56.04
2019-06-07T12:21:00.243Z,53.05
2019-06-07T12:23:51.648Z,53.20
2019-06-07T12:26:49.330Z,54.14
2019-06-07T12:29:44.103Z,56.07
2019-06-07T12:32:40.868Z,52.01
2019-06-07T12:35:37.399Z,53.17
2019-06-07T12:38:35.314Z,50.93
2019-06-07T12:41:31.843Z,51.84
2019-06-07T12:44:27.281Z,54.25
2019-06-07T12:47:24.877Z,51.14
2019-06-07T12:50:21.760Z,52.80
2019-06-07T12:53:17.934Z,51.21
2019-06-07T12:56:13.577Z,51.16
2019-06-07T12:59:10.239Z,50.51
2019-06-07T13:02:05.786Z,51.42
2019-06-07T13:05:04.698Z,49.19
2019-06-07T13:08:00.094Z,50.44
2019-06-07T13:10:56.059Z,49.86
2019-06-07T13:13:52.685Z,48.26
2019-06-07T13:16:48.208Z,49.83
2019-06-07T13:19:45.047Z,48.49
2019-06-07T13:22:41.001Z,48.49
2019-06-07T13:25:46.141Z,48.33
2019-06-07T13:28:34.396Z,49.31
2019-06-07T13:31:30.045Z,49.85
2019-06-07T13:34:26.685Z,48.92
2019-06-07T13:37:23.333Z,48.65
2019-06-07T13:40:19.818Z,47.77
2019-06-07T13:43:14.673Z,46.95
2019-06-07T13:46:16.900Z,45.51
2019-06-07T13:49:13.963Z,44.36
2019-06-07T13:52:11.768Z,42.58
2019-06-07T13:55:13.571Z,44.13
2019-06-07T13:58:11.101Z,42.99
2019-06-07T14:01:07.951Z,41.77
2019-06-07T14:04:04.459Z,41.82
2019-06-07T14:07:01.019Z,40.83
2019-06-07T14:09:56.735Z,39.93
2019-06-07T14:12:53.377Z,38.56
2019-06-07T14:15:50.196Z,39.15
2019-06-07T14:18:45.942Z,38.42
2019-06-07T14:21:42.185Z,38.39
2019-06-07T14:24:37.272Z,36.71
2019-06-07T14:27:36.529Z,37.53
2019-06-07T14:30:33.709Z,37.53
2019-06-07T14:33:31.853Z,37.20
2019-06-07T14:36:26.927Z,38.68
2019-06-07T14:39:23.066Z,36.95
2019-06-07T14:42:19.167Z,34.80
2019-06-07T14:45:16.033Z,34.90
2019-06-07T14:48:12.661Z,34.96
2019-06-07T14:51:09.379Z,34.28
2019-06-07T14:54:08.711Z,35.63
2019-06-07T14:57:05.666Z,33.71
2019-06-07T15:00:10.406Z,35.84
2019-06-07T15:03:00.080Z,34.08
2019-06-07T15:06:10.444Z,33.61
2019-06-07T15:09:07.813Z,33.80
2019-06-07T15:12:03.880Z,33.66
2019-06-07T15:15:00.774Z,33.76
2019-06-07T15:17:58.718Z,35.01
2019-06-07T15:20:54.741Z,35.10
2019-06-07T15:23:53.691Z,34.55
2019-06-07T15:26:49.358Z,34.33
2019-06-07T15:29:47.886Z,34.69
2019-06-07T15:32:43.878Z,33.47
2019-06-07T15:35:40.976Z,32.96
2019-06-07T15:38:39.247Z,32.62
2019-06-07T15:41:35.023Z,34.54
2019-06-07T15:44:33.710Z,32.97
2019-06-07T15:47:29.659Z,32.97
2019-06-07T15:50:28.811Z,31.25
2019-06-07T15:53:25.484Z,32.43
2019-06-07T15:56:21.166Z,33.96
2019-06-07T15:59:17.951Z,34.00
2019-06-07T16:02:14.157Z,32.37
2019-06-07T16:05:10.887Z,33.39
2019-06-07T16:08:07.671Z,34.93
2019-06-07T16:11:05.700Z,35.12
2019-06-07T16:14:02.594Z,35.69
2019-06-07T16:16:59.234Z,36.06
2019-06-07T16:19:56.381Z,36.62
2019-06-07T16:22:52.073Z,37.35
2019-06-07T16:25:52.865Z,38.35
2019-06-07T16:28:49.903Z,39.35
2019-06-07T16:31:46.709Z,39.68
2019-06-07T16:34:45.883Z,40.04
2019-06-07T16:37:40.919Z,40.00
2019-06-07T16:40:44.627Z,41.97
2019-06-07T16:43:40.537Z,42.29
2019-06-07T16:46:36.790Z,42.96
2019-06-07T16:49:33.391Z,43.20
2019-06-07T16:52:29.191Z,42.76
2019-06-07T16:55:26.286Z,43.76
2019-06-07T16:58:23.316Z,42.14
2019-06-07T17:01:21.001Z,43.90
2019-06-07T17:04:16.798Z,43.65
2019-06-07T17:07:13.217Z,44.77
2019-06-07T17:10:14.302Z,44.73
2019-06-07T17:13:10.017Z,45.11
2019-06-07T17:16:07.599Z,45.52
2019-06-07T17:19:02.665Z,46.54
2019-06-07T17:22:01.673Z,47.36
2019-06-07T17:24:57.488Z,46.92
2019-06-07T17:27:54.687Z,47.37
2019-06-07T17:31:03.259Z,47.52
2019-06-07T17:33:59.396Z,47.89
2019-06-07T17:36:56.010Z,48.19
2019-06-07T17:39:51.644Z,48.60
2019-06-07T17:42:49.314Z,48.87
2019-06-07T17:45:47.389Z,49.16
2019-06-07T17:48:53.884Z,49.56
2019-06-07T17:51:52.286Z,50.00
2019-06-07T17:54:48.017Z,50.09
2019-06-07T17:57:49.155Z,50.47
2019-06-07T18:00:51.073Z,50.74
2019-06-07T18:03:49.157Z,50.81
2019-06-07T18:06:45.278Z,51.13
2019-06-07T18:09:41.749Z,51.37
2019-06-07T18:12:39.395Z,51.62
2019-06-07T18:15:35.044Z,52.00
2019-06-07T18:18:32.123Z,52.15
2019-06-07T18:21:36.010Z,52.43
2019-06-07T18:24:31.895Z,52.95
2019-06-07T18:27:28.837Z,54.01
2019-06-07T18:30:25.175Z,54.61
2019-06-07T18:33:24.302Z,55.37
2019-06-07T18:36:21.917Z,56.03
2019-06-07T18:39:17.251Z,57.45
2019-06-07T18:42:15.464Z,58.01
2019-06-07T18:45:12.422Z,58.64
2019-06-07T18:48:09.805Z,58.86
2019-06-07T18:51:05.644Z,58.96
2019-06-07T18:54:03.737Z,59.47
2019-06-07T18:57:00.553Z,60.36
2019-06-07T18:59:58.715Z,60.18
2019-06-07T19:02:56.126Z,60.42
2019-06-07T19:05:52.161Z,61.43
2019-06-07T19:08:48.433Z,61.56
2019-06-07T19:11:43.467Z,62.56
2019-06-07T19:14:40.621Z,62.21
2019-06-07T19:17:37.202Z,62.71
2019-06-07T19:20:33.539Z,63.54
2019-06-07T19:23:30.275Z,64.44
2019-06-07T19:26:26.077Z,64.04
2019-06-07T19:29:23.287Z,64.33
2019-06-07T19:32:23.909Z,64.82
2019-06-07T19:35:20.670Z,65.32
2019-06-07T19:38:22.454Z,65.30
2019-06-07T19:41:20.095Z,65.79
2019-06-07T19:44:17.833Z,65.89
2019-06-07T19:47:13.744Z,67.41
2019-06-07T19:50:10.199Z,67.30
2019-06-07T19:53:08.193Z,67.70
2019-06-07T19:56:04.565Z,69.27
2019-06-07T19:59:01.712Z,68.84
2019-06-07T20:01:57.906Z,70.56
2019-06-07T20:04:59.510Z,71.12
2019-06-07T20:07:52.118Z,71.93
2019-06-07T20:10:56.442Z,72.67
2019-06-07T20:13:51.820Z,72.34
2019-06-07T20:16:48.495Z,72.94
2019-06-07T20:19:44.338Z,73.28
2019-06-07T20:22:41.322Z,74.11
2019-06-07T20:25:43.213Z,74.78
2019-06-07T20:28:40.035Z,76.36
2019-06-07T20:31:37.055Z,76.25
2019-06-07T20:34:45.970Z,76.04
2019-06-07T20:37:42.608Z,77.07
2019-06-07T20:40:39.323Z,78.12
2019-06-07T20:43:47.015Z,77.95
2019-06-07T20:46:42.464Z,78.35
2019-06-07T20:49:39.542Z,78.33
2019-06-07T20:52:35.211Z,78.63
2019-06-07T20:55:33.053Z,78.52
2019-06-07T20:58:28.965Z,79.56
2019-06-07T21:01:26.587Z,79.83
2019-06-07T21:04:23.305Z,79.12
2019-06-07T21:07:19.965Z,81.36
2019-06-07T21:10:17.379Z,80.38
2019-06-07T21:13:15.173Z,80.75
2019-06-07T21:16:11.272Z,81.76
2019-06-07T21:19:08.336Z,82.52
2019-06-07T21:22:05.025Z,83.06
2019-06-07T21:25:03.203Z,85.29
2019-06-07T21:27:57.989Z,84.21
2019-06-07T21:30:54.610Z,82.98
2019-06-07T21:33:50.641Z,82.78
2019-06-07T21:36:47.503Z,83.51
2019-06-07T21:39:42.278Z,83.63
2019-06-07T21:42:39.494Z,84.25
2019-06-07T21:45:35.117Z,85.17
2019-06-07T21:48:32.834Z,85.37
2019-06-07T21:51:28.426Z,76.06
2019-06-07T21:54:25.204Z,72.49
2019-06-07T21:57:20.896Z,74.38
2019-06-07T22:00:26.932Z,74.38
2019-06-07T22:03:23.303Z,73.24
2019-06-07T22:06:22.036Z,75.43
2019-06-07T22:09:18.900Z,73.96
2019-06-07T22:12:15.517Z,73.41
2019-06-07T22:15:32.065Z,73.35
2019-06-07T22:18:10.739Z,72.94
2019-06-07T22:21:06.418Z,71.44
2019-06-07T22:24:08.947Z,69.35
2019-06-07T22:27:05.516Z,67.07
2019-06-07T22:30:00.002Z,69.00
2019-06-07T22:32:56.986Z,69.59
2019-06-07T22:35:52.684Z,68.33
2019-06-07T22:38:50.515Z,69.31
2019-06-07T22:41:46.086Z,69.36
2019-06-07T22:44:42.337Z,69.27
2019-06-07T22:47:40.515Z,70.83
2019-06-07T22:50:36.090Z,70.38
2019-06-07T22:53:32.938Z,70.53
2019-06-07T22:56:43.244Z,70.06
2019-06-07T22:59:41.365Z,69.76
2019-06-07T23:02:36.845Z,70.06
2019-06-07T23:05:34.452Z,69.26
2019-06-07T23:08:31.071Z,67.98
2019-06-07T23:11:27.213Z,67.53
2019-06-07T23:14:25.643Z,68.83
2019-06-07T23:17:20.750Z,66.42
2019-06-07T23:20:15.915Z,66.11
2019-06-07T23:23:12.265Z,68.07
2019-06-07T23:26:08.181Z,67.11
2019-06-07T23:29:06.127Z,66.10
2019-06-07T23:32:01.916Z,66.04
2019-06-07T23:34:59.643Z,67.78
2019-06-07T23:37:55.259Z,67.67
2019-06-07T23:40:51.628Z,65.57
2019-06-07T23:43:47.138Z,66.15
2019-06-07T23:46:44.077Z,65.05
2019-06-07T23:49:42.002Z,65.76
2019-06-07T23:52:38.211Z,68.08
2019-06-07T23:55:34.000Z,66.64
2019-06-07T23:58:30.475Z,68.35
